createdAt,value
2023-05-06T08:01:15.148Z,25.00
2023-05-06T08:02:15.101Z,25.00
2023-05-06T08:03:15.272Z,25.00
2023-05-06T08:04:15.219Z,25.00
2023-05-06T08:05:15.128Z,25.00
2023-05-06T08:06:15.183Z,25.00
2023-05-06T08:07:15.234Z,0.00
2023-05-06T08:08:15.252Z,0.00
2023-05-06T08:09:22.625Z,0.00
2023-05-06T08:10:16.271Z,0.00
2023-05-06T08:11:16.107Z,0.00
2023-05-06T08:12:15.233Z,0.00
2023-05-06T08:13:15.280Z,0.00
2023-05-06T08:14:15.238Z,0.00
2023-05-06T08:15:15.240Z,0.00
2023-05-06T08:16:15.278Z,0.00
2023-05-06T08:17:15.314Z,0.00
2023-05-06T08:18:22.333Z,0.00
2023-05-06T08:19:16.203Z,0.00
2023-05-06T08:20:15.172Z,0.00
2023-05-06T08:21:15.191Z,0.00
2023-05-06T08:22:15.181Z,0.00
2023-05-06T08:23:15.148Z,0.00
2023-05-06T08:24:15.157Z,0.00
2023-05-06T08:25:15.134Z,0.00
2023-05-06T08:26:15.162Z,0.00
2023-05-06T08:27:15.146Z,0.00
2023-05-06T08:28:15.146Z,0.00
2023-05-06T08:29:15.190Z,0.00
2023-05-06T08:30:15.235Z,0.00
2023-05-06T08:31:15.353Z,0.00
2023-05-06T08:32:15.339Z,0.00
2023-05-06T08:33:15.389Z,0.00
2023-05-06T08:34:15.463Z,0.00
2023-05-06T08:35:15.521Z,0.00
2023-05-06T08:36:15.549Z,0.00
2023-05-06T08:37:15.575Z,0.00
2023-05-06T08:38:15.667Z,3.25
2023-05-06T08:39:15.670Z,25.00
2023-05-06T08:40:15.749Z,29.01
2023-05-06T08:41:15.814Z,25.38
2023-05-06T08:42:15.852Z,25.10
2023-05-06T08:43:15.941Z,25.31
2023-05-06T08:44:15.910Z,26.95
2023-05-06T08:45:15.984Z,28.70
2023-05-06T08:46:16.068Z,26.57
2023-05-06T08:47:16.077Z,26.29
2023-05-06T08:48:16.156Z,25.46
2023-05-06T08:49:16.285Z,26.63
2023-05-06T08:50:16.217Z,25.86
2023-05-06T08:51:16.278Z,26.12
2023-05-06T08:52:16.326Z,27.06
2023-05-06T08:53:16.365Z,25.00
2023-05-06T08:54:16.418Z,26.71
2023-05-06T08:55:16.497Z,27.20
2023-05-06T08:56:16.549Z,25.47
2023-05-06T08:57:16.541Z,25.96
2023-05-06T08:58:16.593Z,25.00
2023-05-06T08:59:16.657Z,27.97
2023-05-06T09:00:16.741Z,26.80
2023-05-06T09:01:16.865Z,25.52
2023-05-06T09:02:16.806Z,25.48
2023-05-06T09:03:16.885Z,28.68
2023-05-06T09:04:16.864Z,28.66
2023-05-06T09:05:16.950Z,27.42
2023-05-06T09:06:16.965Z,29.02
2023-05-06T09:07:17.032Z,30.60
2023-05-06T09:08:17.045Z,28.59
2023-05-06T09:09:17.085Z,27.32
2023-05-06T09:10:17.142Z,28.27
2023-05-06T09:11:17.157Z,28.74
2023-05-06T09:12:17.259Z,27.52
2023-05-06T09:13:17.316Z,26.94
2023-05-06T09:14:17.290Z,26.89
2023-05-06T09:15:17.356Z,27.72
2023-05-06T09:16:17.402Z,25.00
2023-05-06T09:17:17.407Z,28.82
2023-05-06T09:18:17.474Z,29.91
2023-05-06T09:19:17.517Z,27.93
2023-05-06T09:20:17.582Z,29.52
2023-05-06T09:21:17.737Z,27.14
2023-05-06T09:22:17.669Z,25.56
2023-05-06T09:23:17.692Z,25.97
2023-05-06T09:24:17.713Z,27.78
2023-05-06T09:25:17.782Z,28.78
2023-05-06T09:26:17.838Z,27.86
2023-05-06T09:27:17.844Z,26.91
2023-05-06T09:28:17.913Z,25.94
2023-05-06T09:29:17.942Z,29.04
2023-05-06T09:30:17.989Z,27.58
2023-05-06T09:31:18.123Z,28.07
2023-05-06T09:32:18.143Z,26.43
2023-05-06T09:33:18.140Z,30.49
2023-05-06T09:34:18.232Z,32.08
2023-05-06T09:35:18.235Z,30.40
2023-05-06T09:36:18.240Z,28.27
2023-05-06T09:37:18.383Z,29.82
2023-05-06T09:38:18.412Z,27.88
2023-05-06T09:39:18.418Z,28.79
2023-05-06T09:40:18.499Z,29.37
2023-05-06T09:41:18.543Z,29.67
2023-05-06T09:42:18.543Z,29.66
2023-05-06T09:43:18.575Z,26.17
2023-05-06T09:44:18.618Z,29.17
2023-05-06T09:45:18.657Z,27.36
2023-05-06T09:46:18.753Z,30.31
2023-05-06T09:47:18.748Z,28.73
2023-05-06T09:48:18.780Z,26.37
2023-05-06T09:49:18.836Z,29.21
2023-05-06T09:50:18.877Z,27.17
2023-05-06T09:51:18.915Z,28.04
2023-05-06T09:52:18.944Z,28.99
2023-05-06T09:53:19.062Z,28.77
2023-05-06T09:54:19.071Z,26.56
2023-05-06T09:55:19.093Z,28.61
2023-05-06T09:56:19.152Z,27.67
2023-05-06T09:57:19.196Z,29.19
2023-05-06T09:58:19.252Z,28.22
2023-05-06T09:59:19.278Z,26.87
2023-05-06T10:00:19.315Z,25.70
2023-05-06T10:01:32.848Z,27.90
2023-05-06T10:02:20.521Z,28.07
2023-05-06T10:03:19.443Z,28.48
2023-05-06T10:04:19.561Z,28.17
2023-05-06T10:05:19.415Z,28.79
2023-05-06T10:06:19.350Z,27.23
2023-05-06T10:07:19.330Z,28.85
2023-05-06T10:08:19.317Z,32.36
2023-05-06T10:09:19.315Z,29.08
2023-05-06T10:10:19.295Z,27.11
2023-05-06T10:11:19.303Z,29.35
2023-05-06T10:12:19.281Z,26.97
2023-05-06T10:13:19.301Z,27.28
2023-05-06T10:14:19.288Z,30.19
2023-05-06T10:15:19.339Z,30.50
2023-05-06T10:16:19.427Z,30.41
2023-05-06T10:17:19.405Z,30.17
2023-05-06T10:18:19.454Z,30.12
2023-05-06T10:19:19.499Z,31.49
2023-05-06T10:20:19.529Z,29.10
2023-05-06T10:21:19.635Z,32.52
2023-05-06T10:22:19.697Z,28.98
2023-05-06T10:23:19.684Z,30.78
2023-05-06T10:24:19.709Z,31.78
2023-05-06T10:25:19.745Z,30.76
2023-05-06T10:26:19.814Z,30.14
2023-05-06T10:27:19.831Z,31.22
2023-05-06T10:28:23.179Z,33.86
2023-05-06T10:29:20.849Z,34.18
2023-05-06T10:30:19.839Z,34.72
2023-05-06T10:31:19.877Z,35.34
2023-05-06T10:32:19.888Z,37.04
2023-05-06T10:33:19.826Z,38.21
2023-05-06T10:34:19.812Z,41.02
2023-05-06T10:35:19.829Z,39.27
2023-05-06T10:36:19.845Z,40.99
2023-05-06T10:37:19.811Z,41.57
2023-05-06T10:38:19.816Z,39.77
2023-05-06T10:39:19.792Z,34.89
2023-05-06T10:40:19.777Z,35.15
2023-05-06T10:41:19.873Z,33.98
2023-05-06T10:42:19.858Z,34.02
2023-05-06T10:43:19.862Z,34.24
2023-05-06T10:44:19.933Z,30.92
2023-05-06T10:45:19.934Z,35.89
2023-05-06T10:46:20.000Z,35.05
2023-05-06T10:47:20.076Z,31.33
2023-05-06T10:48:20.035Z,32.34
2023-05-06T10:49:20.093Z,31.51
2023-05-06T10:50:20.100Z,31.45
2023-05-06T10:51:20.159Z,31.34
2023-05-06T10:52:20.202Z,29.18
2023-05-06T10:53:20.238Z,29.89
2023-05-06T10:54:20.262Z,30.28
2023-05-06T10:55:20.303Z,31.78
2023-05-06T10:56:20.324Z,30.41
2023-05-06T10:57:20.450Z,28.39
2023-05-06T10:58:20.437Z,31.34
2023-05-06T10:59:20.511Z,32.03
2023-05-06T11:00:20.555Z,31.47
2023-05-06T11:01:21.284Z,32.54
2023-05-06T11:02:20.861Z,28.84
2023-05-06T11:03:20.794Z,31.67
2023-05-06T11:04:20.631Z,31.72
2023-05-06T11:05:20.678Z,32.30
2023-05-06T11:06:20.702Z,33.69
2023-05-06T11:07:20.739Z,29.15
2023-05-06T11:08:20.804Z,27.80
2023-05-06T11:09:20.856Z,31.39
2023-05-06T11:10:20.859Z,33.35
2023-05-06T11:11:20.905Z,30.19
2023-05-06T11:12:20.937Z,27.38
2023-05-06T11:13:21.202Z,26.84
2023-05-06T11:14:20.993Z,26.61
2023-05-06T11:15:21.036Z,31.30
2023-05-06T11:16:21.071Z,29.71
2023-05-06T11:17:21.097Z,30.85
2023-05-06T11:18:21.134Z,30.38
2023-05-06T11:19:21.134Z,30.88
2023-05-06T11:20:21.180Z,29.27
2023-05-06T11:21:21.193Z,29.33
2023-05-06T11:22:21.225Z,32.75
2023-05-06T11:23:21.279Z,31.65
2023-05-06T11:24:21.321Z,30.27
2023-05-06T11:25:21.316Z,31.03
2023-05-06T11:26:21.341Z,29.62
2023-05-06T11:27:21.371Z,26.86
2023-05-06T11:28:21.412Z,30.20
2023-05-06T11:29:21.495Z,31.19
2023-05-06T11:30:21.472Z,29.42
2023-05-06T11:31:21.520Z,28.54
2023-05-06T11:32:21.597Z,31.55
2023-05-06T11:33:21.601Z,31.07
2023-05-06T11:34:21.589Z,30.18
2023-05-06T11:35:21.637Z,29.79
2023-05-06T11:36:21.668Z,31.23
2023-05-06T11:37:21.732Z,30.13
2023-05-06T11:38:21.715Z,31.99
2023-05-06T11:39:21.751Z,32.61
2023-05-06T11:40:21.795Z,31.94
2023-05-06T11:41:21.854Z,32.94
2023-05-06T11:42:21.857Z,31.68
2023-05-06T11:43:21.870Z,32.76
2023-05-06T11:44:21.913Z,33.69
2023-05-06T11:45:21.985Z,32.68
2023-05-06T11:46:22.099Z,30.91
2023-05-06T11:47:21.996Z,32.25
2023-05-06T11:48:21.993Z,33.56
2023-05-06T11:49:22.031Z,28.79
2023-05-06T11:50:22.039Z,31.61
2023-05-06T11:51:22.067Z,31.94
2023-05-06T11:52:22.066Z,31.69
2023-05-06T11:53:22.131Z,32.36
2023-05-06T11:54:22.115Z,34.33
2023-05-06T11:55:22.175Z,31.06
2023-05-06T11:56:22.199Z,31.61
2023-05-06T11:57:22.194Z,28.33
2023-05-06T11:58:22.256Z,29.22
2023-05-06T11:59:22.258Z,29.92
2023-05-06T12:00:22.272Z,32.90
2023-05-06T12:01:22.500Z,28.95
2023-05-06T12:02:22.393Z,30.62
2023-05-06T12:03:22.439Z,31.65
2023-05-06T12:04:22.405Z,32.46
2023-05-06T12:05:22.384Z,31.66
2023-05-06T12:06:24.455Z,33.39
2023-05-06T12:07:22.420Z,29.98
2023-05-06T12:08:27.263Z,30.72
2023-05-06T12:09:23.414Z,30.90
2023-05-06T12:10:22.420Z,31.20
2023-05-06T12:11:22.399Z,31.64
2023-05-06T12:12:22.502Z,32.20
2023-05-06T12:13:22.530Z,28.98
2023-05-06T12:14:22.407Z,27.89
2023-05-06T12:15:22.387Z,27.96
2023-05-06T12:16:22.429Z,31.51
2023-05-06T12:17:22.470Z,29.43
2023-05-06T12:18:22.351Z,27.73
2023-05-06T12:19:22.365Z,28.16
2023-05-06T12:20:22.352Z,27.27
2023-05-06T12:21:22.377Z,29.43
2023-05-06T12:22:22.387Z,28.29
2023-05-06T12:23:22.345Z,27.95
2023-05-06T12:24:22.347Z,29.09
2023-05-06T12:25:22.310Z,30.37
2023-05-06T12:26:22.295Z,29.73
2023-05-06T12:27:22.312Z,28.72
2023-05-06T12:28:22.308Z,28.01
2023-05-06T12:29:22.315Z,27.73
2023-05-06T12:30:22.284Z,31.00
2023-05-06T12:31:22.470Z,31.82
2023-05-06T12:32:22.382Z,29.72
2023-05-06T12:33:22.380Z,30.56
2023-05-06T12:34:22.371Z,30.66
2023-05-06T12:35:22.415Z,28.18
2023-05-06T12:36:22.383Z,28.01
2023-05-06T12:37:22.430Z,30.94
2023-05-06T12:38:22.458Z,30.03
2023-05-06T12:39:22.447Z,30.09
2023-05-06T12:40:22.472Z,30.64
2023-05-06T12:41:22.487Z,28.97
2023-05-06T12:42:22.471Z,29.44
2023-05-06T12:43:22.520Z,31.70
2023-05-06T12:44:22.520Z,30.22
2023-05-06T12:45:22.515Z,29.83
2023-05-06T12:46:22.554Z,31.32
2023-05-06T12:47:22.609Z,29.26
2023-05-06T12:48:22.570Z,30.07
2023-05-06T12:49:22.656Z,32.25
2023-05-06T12:50:22.622Z,26.37
2023-05-06T12:51:22.628Z,29.52
2023-05-06T12:52:22.653Z,28.04
2023-05-06T12:53:22.642Z,28.52
2023-05-06T12:54:22.615Z,33.94
2023-05-06T12:55:22.640Z,29.03
2023-05-06T12:56:22.698Z,29.99
2023-05-06T12:57:22.648Z,34.47
2023-05-06T12:58:22.674Z,29.43
2023-05-06T12:59:22.661Z,30.23
2023-05-06T13:00:22.672Z,30.48
